aviador You're here:

KMRY Decoded Metar

MONTEREY in CA, USA
Report Time2018-07-22 23:54:00
UTC Time2018-07-23 00:05:22
Flight Rules vfr VFR
Wind290° at 08 kt
W.Decomp.*RWY 28: 8.0 kt HW 0.7 kt LCW
W.Rank290° ranks 9
Current wind is above 290° avg. (6.6)
Visibility9999 m
Phenomena:N/A
Clouds:N/A
Expected CloudBase > 2,800 ft AGL from Temp-Dew spread
CeilingNone
Temp21°C (ISA +6)
Dew Point14°C (64% RH)
AAT19.4°C
QNH1019 hPa
Density Alt981 ft
Elevation217 ft
Report Wrong Elevation
Raw Report
KMRY 222354Z 29008KT 10SM CLR 21/14 A3009 RMK AO2 SLP199 T02060144
10211 20178 58006=

Extra information for KMRY:More info

Metar Taf Metar & Taf Last 4 Metars F.Rules Stats Wind Profile Meteogram Temp Stats Airport Information Weather charts Add Link Nearby VenuesMetar ALERT Operation Metar Decoded Social comments

AIRNAV info for KMRY